createdAt,value
2016-02-23T00:00:23.622Z,1007.76
2016-02-23T00:01:23.594Z,1007.81
2016-02-23T00:02:23.581Z,1007.78
2016-02-23T00:03:23.553Z,1007.79
2016-02-23T00:04:23.539Z,1007.8
2016-02-23T00:05:23.519Z,1007.81
2016-02-23T00:06:23.506Z,1007.84
2016-02-23T00:07:23.494Z,1007.85
2016-02-23T00:08:23.464Z,1007.84
2016-02-23T00:09:23.453Z,1007.87
2016-02-23T00:10:23.439Z,1007.87
2016-02-23T00:11:23.410Z,1007.88
2016-02-23T00:12:23.398Z,1007.82
2016-02-23T00:13:23.385Z,1007.81
2016-02-23T00:14:23.356Z,1007.8
2016-02-23T00:15:23.343Z,1007.78
2016-02-23T00:16:23.330Z,1007.83
2016-02-23T00:17:23.302Z,1007.8
2016-02-23T00:18:23.288Z,1007.78
2016-02-23T00:19:23.276Z,1007.81
2016-02-23T00:20:23.247Z,1007.83
2016-02-23T00:21:23.235Z,1007.81
2016-02-23T00:22:23.217Z,1007.85
2016-02-23T00:23:23.178Z,1007.77
2016-02-23T00:24:23.153Z,1007.78
2016-02-23T00:25:23.129Z,1007.8
2016-02-23T00:26:23.089Z,1007.73
2016-02-23T00:27:23.068Z,1007.74
2016-02-23T00:28:23.050Z,1007.77
2016-02-23T00:29:23.018Z,1007.73
2016-02-23T00:30:23.001Z,1007.76
2016-02-23T00:31:22.985Z,1007.76
2016-02-23T00:32:22.968Z,1007.79
2016-02-23T00:33:22.938Z,1007.75
2016-02-23T00:34:22.924Z,1007.75
2016-02-23T00:35:22.895Z,1007.75
2016-02-23T00:36:22.880Z,1007.76
2016-02-23T00:37:22.866Z,1007.7
2016-02-23T00:38:22.836Z,1007.68
2016-02-23T00:39:22.838Z,1007.68
2016-02-23T00:40:22.810Z,1007.68
2016-02-23T00:41:22.796Z,1007.7
2016-02-23T00:42:22.773Z,1007.73
2016-02-23T00:43:22.745Z,1007.73
2016-02-23T00:44:22.732Z,1007.78
2016-02-23T00:45:22.719Z,1007.78
2016-02-23T00:46:22.691Z,1007.79
2016-02-23T00:47:22.678Z,1007.78
2016-02-23T00:48:22.664Z,1007.78
2016-02-23T00:49:22.653Z,1007.81
2016-02-23T00:50:22.623Z,1007.79
2016-02-23T00:51:22.610Z,1007.8
2016-02-23T00:52:22.597Z,1007.78
2016-02-23T00:53:22.569Z,1007.84
2016-02-23T00:54:22.556Z,1007.81
2016-02-23T00:55:22.544Z,1007.79
2016-02-23T00:56:22.514Z,1007.79
2016-02-23T00:57:22.502Z,1007.77
2016-02-23T00:58:22.489Z,1007.77
2016-02-23T00:59:22.475Z,1007.75
2016-02-23T01:00:22.447Z,1007.74
2016-02-23T01:01:22.435Z,1007.76
2016-02-23T01:02:22.421Z,1007.78
2016-02-23T01:03:22.424Z,1007.74
2016-02-23T01:04:22.380Z,1007.74
2016-02-23T01:05:22.366Z,1007.82
2016-02-23T01:06:22.354Z,1007.75
2016-02-23T01:07:22.326Z,1007.79
2016-02-23T01:08:22.312Z,1007.81
2016-02-23T01:09:22.299Z,1007.78
2016-02-23T01:10:22.271Z,1007.84
2016-02-23T01:11:22.257Z,1007.8
2016-02-23T01:12:22.246Z,1007.85
2016-02-23T01:13:22.232Z,1007.9
2016-02-23T01:14:22.203Z,1007.9
2016-02-23T01:15:22.190Z,1007.91
2016-02-23T01:16:22.178Z,1007.94
2016-02-23T01:17:22.149Z,1007.94
2016-02-23T01:18:22.136Z,1007.91
2016-02-23T01:19:22.123Z,1007.92
2016-02-23T01:20:22.095Z,1007.94
2016-02-23T01:21:22.082Z,1007.94
2016-02-23T01:22:22.069Z,1007.98
2016-02-23T01:23:22.040Z,1007.98
2016-02-23T01:24:22.058Z,1008
2016-02-23T01:25:22.015Z,1007.99
2016-02-23T01:26:22.002Z,1008
2016-02-23T01:27:21.972Z,1008.01
2016-02-23T01:28:21.960Z,1008.01
2016-02-23T01:29:21.963Z,1007.98
2016-02-23T01:30:21.919Z,1007.95
2016-02-23T01:31:21.905Z,1007.95
2016-02-23T01:32:21.893Z,1007.93
2016-02-23T01:33:21.864Z,1007.92
2016-02-23T01:34:21.852Z,1007.9
2016-02-23T01:35:21.838Z,1007.9
2016-02-23T01:36:21.809Z,1007.89
2016-02-23T01:37:21.797Z,1007.91
2016-02-23T01:38:21.784Z,1007.89
2016-02-23T01:39:21.755Z,1007.86
2016-02-23T01:40:21.743Z,1007.86
2016-02-23T01:41:21.729Z,1007.84
2016-02-23T01:42:21.701Z,1007.91
2016-02-23T01:43:21.688Z,1007.86
2016-02-23T01:44:21.675Z,1007.89
2016-02-23T01:45:21.646Z,1007.85
2016-02-23T01:46:21.634Z,1007.85
2016-02-23T01:47:21.620Z,1007.78
2016-02-23T01:48:21.592Z,1007.82
2016-02-23T01:49:21.579Z,1007.82
2016-02-23T01:50:21.566Z,1007.87
2016-02-23T01:51:21.553Z,1007.86
2016-02-23T01:52:21.525Z,1007.8
2016-02-23T01:53:21.511Z,1007.77
2016-02-23T01:54:21.498Z,1007.72
2016-02-23T01:55:21.470Z,1007.73
2016-02-23T01:56:21.457Z,1007.74
2016-02-23T01:57:21.445Z,1007.75
2016-02-23T01:58:21.416Z,1007.66
2016-02-23T01:59:21.418Z,1007.67
2016-02-23T02:00:21.390Z,1007.67
2016-02-23T02:01:21.361Z,1007.62
2016-02-23T02:02:21.348Z,1007.62
2016-02-23T02:03:21.335Z,1007.64
2016-02-23T02:04:21.307Z,1007.67
2016-02-23T02:05:21.294Z,1007.62
2016-02-23T02:06:21.281Z,1007.69
2016-02-23T02:07:21.252Z,1007.67
2016-02-23T02:08:21.240Z,1007.72
2016-02-23T02:09:21.227Z,1007.67
2016-02-23T02:10:21.198Z,1007.65
2016-02-23T02:11:21.184Z,1007.67
2016-02-23T02:12:21.172Z,1007.61
2016-02-23T02:13:21.174Z,1007.61
2016-02-23T02:14:21.131Z,1007.58
2016-02-23T02:15:21.118Z,1007.56
2016-02-23T02:16:21.104Z,1007.55
2016-02-23T02:17:21.076Z,1007.57
2016-02-23T02:18:21.063Z,1007.56
2016-02-23T02:19:21.050Z,1007.58
2016-02-23T02:20:21.022Z,1007.56
2016-02-23T02:21:21.009Z,1007.52
2016-02-23T02:22:20.996Z,1007.62
2016-02-23T02:23:20.967Z,1007.55
2016-02-23T02:24:20.954Z,1007.6
2016-02-23T02:25:20.942Z,1007.59
2016-02-23T02:26:20.913Z,1007.6
2016-02-23T02:27:20.900Z,1007.57
2016-02-23T02:28:20.887Z,1007.54
2016-02-23T02:29:20.874Z,1007.48
2016-02-23T02:30:20.850Z,1007.5
2016-02-23T02:31:20.838Z,1007.51
2016-02-23T02:32:20.808Z,1007.49
2016-02-23T02:33:20.811Z,1007.5
2016-02-23T02:34:20.768Z,1007.53
2016-02-23T02:35:20.754Z,1007.46
2016-02-23T02:36:20.741Z,1007.49
2016-02-23T02:37:20.713Z,1007.47
2016-02-23T02:38:20.699Z,1007.5
2016-02-23T02:39:20.688Z,1007.45
2016-02-23T02:40:20.659Z,1007.5
2016-02-23T02:41:20.645Z,1007.48
2016-02-23T02:42:20.633Z,1007.47
2016-02-23T02:43:20.620Z,1007.48
2016-02-23T02:44:20.590Z,1007.49
2016-02-23T02:45:20.578Z,1007.51
2016-02-23T02:46:20.550Z,1007.47
2016-02-23T02:47:20.536Z,1007.41
2016-02-23T02:48:20.524Z,1007.47
2016-02-23T02:49:20.495Z,1007.43
2016-02-23T02:50:20.481Z,1007.41
2016-02-23T02:51:20.470Z,1007.42
2016-02-23T02:52:20.456Z,1007.42
2016-02-23T02:53:20.427Z,1007.41
2016-02-23T02:54:20.415Z,1007.46
2016-02-23T02:55:20.386Z,1007.43
2016-02-23T02:56:20.373Z,1007.45
2016-02-23T02:57:20.361Z,1007.5
2016-02-23T02:58:20.347Z,1007.5
2016-02-23T02:59:20.319Z,1007.46
2016-02-23T03:00:20.306Z,1007.5
2016-02-23T03:01:20.293Z,1007.48
2016-02-23T03:02:20.264Z,1007.47
2016-02-23T03:03:20.252Z,1007.5
2016-02-23T03:04:20.239Z,1007.46
2016-02-23T03:05:20.210Z,1007.46
2016-02-23T03:06:20.197Z,1007.52
2016-02-23T03:07:20.185Z,1007.51
2016-02-23T03:08:20.155Z,1007.54
2016-02-23T03:09:20.143Z,1007.57
2016-02-23T03:10:20.129Z,1007.52
2016-02-23T03:11:20.101Z,1007.55
2016-02-23T03:12:20.087Z,1007.52
2016-02-23T03:13:20.076Z,1007.57
2016-02-23T03:14:20.046Z,1007.55
2016-02-23T03:15:20.034Z,1007.52
2016-02-23T03:16:20.021Z,1007.55
2016-02-23T03:17:19.992Z,1007.55
2016-02-23T03:18:19.979Z,1007.54
2016-02-23T03:19:19.967Z,1007.58
2016-02-23T03:20:19.953Z,1007.55
2016-02-23T03:21:19.925Z,1007.6
2016-02-23T03:22:19.912Z,1007.61
2016-02-23T03:23:19.883Z,1007.62
2016-02-23T03:24:19.871Z,1007.63
2016-02-23T03:25:19.858Z,1007.65
2016-02-23T03:26:19.828Z,1007.67
2016-02-23T03:27:19.817Z,1007.77
2016-02-23T03:28:19.803Z,1007.69
2016-02-23T03:29:19.775Z,1007.66
2016-02-23T03:30:19.761Z,1007.67
2016-02-23T03:31:19.749Z,1007.69
2016-02-23T03:32:19.719Z,1007.62
2016-02-23T03:33:19.708Z,1007.62
2016-02-23T03:34:19.694Z,1007.66
2016-02-23T03:35:19.681Z,1007.63
2016-02-23T03:36:19.653Z,1007.61
2016-02-23T03:37:19.640Z,1007.61
2016-02-23T03:38:19.627Z,1007.6
2016-02-23T03:39:19.598Z,1007.61
2016-02-23T03:40:19.585Z,1007.59
2016-02-23T03:41:19.573Z,1007.59
2016-02-23T03:42:19.560Z,1007.62
2016-02-23T03:43:19.531Z,1007.66
2016-02-23T03:44:19.518Z,1007.66
2016-02-23T03:45:19.504Z,1007.66
2016-02-23T03:46:19.477Z,1007.65
2016-02-23T03:47:19.464Z,1007.66
2016-02-23T03:48:19.450Z,1007.65
2016-02-23T03:49:19.423Z,1007.67
2016-02-23T03:50:19.409Z,1007.63
2016-02-23T03:51:19.396Z,1007.63
2016-02-23T03:52:19.384Z,1007.63
2016-02-23T03:53:19.355Z,1007.67
2016-02-23T03:54:19.342Z,1007.66
2016-02-23T03:55:19.329Z,1007.65
2016-02-23T03:56:19.300Z,1007.65
2016-02-23T03:57:19.286Z,1007.66
2016-02-23T03:58:19.275Z,1007.66
2016-02-23T03:59:19.261Z,1007.69
2016-02-23T04:00:19.233Z,1007.64
2016-02-23T04:01:19.220Z,1007.65
2016-02-23T04:02:19.191Z,1007.63
2016-02-23T04:03:19.178Z,1007.67
2016-02-23T04:04:19.166Z,1007.69
2016-02-23T04:05:19.152Z,1007.71
2016-02-23T04:06:19.140Z,1007.74
2016-02-23T04:07:19.111Z,1007.77
2016-02-23T04:08:19.098Z,1007.72
2016-02-23T04:09:19.085Z,1007.72
2016-02-23T04:10:19.057Z,1007.74
2016-02-23T04:11:19.044Z,1007.79
2016-02-23T04:12:19.015Z,1007.81
2016-02-23T04:13:19.002Z,1007.81
2016-02-23T04:14:18.990Z,1007.81
2016-02-23T04:15:18.976Z,1007.82
2016-02-23T04:16:18.948Z,1007.76
2016-02-23T04:17:18.935Z,1007.81
2016-02-23T04:18:18.922Z,1007.83
2016-02-23T04:19:18.893Z,1007.85
2016-02-23T04:20:18.881Z,1007.8
2016-02-23T04:21:18.867Z,1007.81
2016-02-23T04:22:18.839Z,1007.83
2016-02-23T04:23:18.826Z,1007.91
2016-02-23T04:24:18.813Z,1007.89
2016-02-23T04:25:18.784Z,1007.92
2016-02-23T04:26:18.772Z,1007.87
2016-02-23T04:27:18.758Z,1007.86
2016-02-23T04:28:18.731Z,1007.88
2016-02-23T04:29:18.717Z,1007.89
2016-02-23T04:30:18.704Z,1007.97
2016-02-23T04:31:18.692Z,1007.9
2016-02-23T04:32:18.663Z,1007.95
2016-02-23T04:33:18.650Z,1007.98
2016-02-23T04:34:18.622Z,1007.95
2016-02-23T04:35:18.608Z,1007.96
2016-02-23T04:36:18.596Z,1007.99
2016-02-23T04:37:18.583Z,1008.02
2016-02-23T04:38:18.554Z,1007.99
2016-02-23T04:39:18.540Z,1008
2016-02-23T04:40:18.527Z,1007.96
2016-02-23T04:41:18.499Z,1007.95
2016-02-23T04:42:18.487Z,1007.93
2016-02-23T04:43:18.473Z,1007.91
2016-02-23T04:44:18.445Z,1007.88
2016-02-23T04:45:18.432Z,1007.95
2016-02-23T04:46:18.419Z,1007.92
2016-02-23T04:47:18.407Z,1007.92
2016-02-23T04:48:18.378Z,1007.89
2016-02-23T04:49:18.364Z,1007.85
2016-02-23T04:50:18.337Z,1007.89
2016-02-23T04:51:18.323Z,1007.91
2016-02-23T04:52:18.309Z,1007.89
2016-02-23T04:53:18.282Z,1007.93
2016-02-23T04:54:18.269Z,1007.94
2016-02-23T04:55:18.256Z,1007.89
2016-02-23T04:56:18.228Z,1007.88
2016-02-23T04:57:18.214Z,1007.86
2016-02-23T04:58:18.201Z,1007.85
2016-02-23T04:59:18.173Z,1007.93
2016-02-23T05:00:18.160Z,1007.84
2016-02-23T05:01:18.147Z,1007.84
2016-02-23T05:02:18.118Z,1007.91
2016-02-23T05:03:18.106Z,1007.85
2016-02-23T05:04:18.092Z,1007.88
2016-02-23T05:05:18.220Z,1007.85
2016-02-23T05:06:18.051Z,1007.85
2016-02-23T05:07:18.038Z,1007.82
2016-02-23T05:08:18.025Z,1007.8
2016-02-23T05:09:17.997Z,1007.83
2016-02-23T05:10:17.983Z,1007.81
2016-02-23T05:11:17.954Z,1007.85
2016-02-23T05:12:17.943Z,1007.84
2016-02-23T05:13:17.929Z,1007.82
2016-02-23T05:14:17.901Z,1007.81
2016-02-23T05:15:17.888Z,1007.83
2016-02-23T05:16:17.874Z,1007.8
2016-02-23T05:17:17.862Z,1007.8
2016-02-23T05:18:17.834Z,1007.89
2016-02-23T05:19:17.820Z,1007.88
2016-02-23T05:20:17.807Z,1007.91
2016-02-23T05:21:17.795Z,1007.88
2016-02-23T05:22:17.765Z,1007.85
2016-02-23T05:23:17.753Z,1007.84
2016-02-23T05:24:17.725Z,1007.92
2016-02-23T05:25:17.743Z,1007.88
2016-02-23T05:26:17.698Z,1007.87
2016-02-23T05:27:17.670Z,1007.89
2016-02-23T05:28:17.656Z,1007.89
2016-02-23T05:29:17.644Z,1007.86
2016-02-23T05:30:17.616Z,1007.87
2016-02-23T05:31:17.603Z,1007.91
2016-02-23T05:32:17.589Z,1007.89
2016-02-23T05:33:17.561Z,1007.97
2016-02-23T05:34:17.548Z,1007.9
2016-02-23T05:35:17.535Z,1007.92
2016-02-23T05:36:17.507Z,1007.97
2016-02-23T05:37:17.494Z,1007.95
2016-02-23T05:38:17.481Z,1007.97
2016-02-23T05:39:17.499Z,1007.92
2016-02-23T05:40:17.439Z,1007.96
2016-02-23T05:41:17.441Z,1007.93
2016-02-23T05:42:17.399Z,1007.98
2016-02-23T05:43:17.385Z,1007.95
2016-02-23T05:44:17.372Z,1007.95
2016-02-23T05:45:17.343Z,1007.95
2016-02-23T05:46:17.377Z,1007.97
2016-02-23T05:47:17.380Z,1007.94
2016-02-23T05:48:17.382Z,1007.96
2016-02-23T05:49:17.338Z,1007.97
2016-02-23T05:50:17.310Z,1007.95
2016-02-23T05:51:17.297Z,1007.98
2016-02-23T05:52:17.285Z,1008.03
2016-02-23T05:53:17.224Z,1008.02
2016-02-23T05:54:17.195Z,1008.03
2016-02-23T05:55:17.167Z,1008.04
2016-02-23T05:56:17.154Z,1008.06
2016-02-23T05:57:17.141Z,1007.83
2016-02-23T05:58:17.112Z,1007.83
2016-02-23T05:59:17.100Z,1007.83
2016-02-23T06:00:17.149Z,1007.86
2016-02-23T06:01:17.059Z,1008.1
2016-02-23T06:02:17.045Z,1008.09
2016-02-23T06:03:17.032Z,1008.11
2016-02-23T06:04:17.019Z,1008.09
2016-02-23T06:05:16.991Z,1008.09
2016-02-23T06:06:16.994Z,1008.15
2016-02-23T06:07:16.949Z,1008.1
2016-02-23T06:08:16.936Z,1008.13
2016-02-23T06:09:16.939Z,1008.13
2016-02-23T06:10:16.895Z,1008.14
2016-02-23T06:11:16.882Z,1008.19
2016-02-23T06:12:16.885Z,1008.2
2016-02-23T06:13:16.841Z,1008.21
2016-02-23T06:14:16.827Z,1008.27
2016-02-23T06:15:16.815Z,1008.22
2016-02-23T06:16:16.786Z,1008.26
2016-02-23T06:17:16.788Z,1008.28
2016-02-23T06:18:16.761Z,1008.02
2016-02-23T06:19:16.748Z,1008.27
2016-02-23T06:20:16.719Z,1008.03
2016-02-23T06:21:16.706Z,1008.05
2016-02-23T06:22:16.693Z,1008.28
2016-02-23T06:23:16.679Z,1008.28
2016-02-23T06:24:16.651Z,1008.06
2016-02-23T06:25:16.639Z,1008.36
2016-02-23T06:26:16.687Z,1008.04
2016-02-23T06:27:16.676Z,1008.28
2016-02-23T06:28:16.584Z,1008.25
2016-02-23T06:29:16.571Z,1008.3
2016-02-23T06:30:16.542Z,1008.31
2016-02-23T06:31:16.530Z,1008.28
2016-02-23T06:32:16.517Z,1008.26
2016-02-23T06:33:16.488Z,1008.27
2016-02-23T06:34:16.491Z,1008.28
2016-02-23T06:35:16.462Z,1008.3
2016-02-23T06:36:16.434Z,1008.3
2016-02-23T06:37:16.422Z,1008.3
2016-02-23T06:38:16.408Z,1008.3
2016-02-23T06:39:16.394Z,1008.35
2016-02-23T06:40:16.429Z,1008.3
2016-02-23T06:41:16.353Z,1008.33
2016-02-23T06:42:16.341Z,1008.37
2016-02-23T06:43:16.312Z,1008.31
2016-02-23T06:44:16.315Z,1008.36
2016-02-23T06:45:16.286Z,1008.35
2016-02-23T06:46:16.257Z,1008.33
2016-02-23T06:47:16.244Z,1008.31
2016-02-23T06:48:16.247Z,1008.27
2016-02-23T06:49:16.296Z,1008.28
2016-02-23T06:50:16.190Z,1008.32
2016-02-23T06:51:16.177Z,1008.32
2016-02-23T06:52:16.148Z,1008.32
2016-02-23T06:53:16.135Z,1008.29
2016-02-23T06:54:16.123Z,1008.34
2016-02-23T06:55:16.109Z,1008.32
2016-02-23T06:56:16.098Z,1008.36
2016-02-23T06:57:16.068Z,1008.36
2016-02-23T06:58:16.055Z,1008.36
2016-02-23T06:59:16.059Z,1008.35
2016-02-23T07:00:16.014Z,1008.36
2016-02-23T07:01:16.000Z,1008.36
2016-02-23T07:02:15.972Z,1008.39
2016-02-23T07:03:15.959Z,1008.22
2016-02-23T07:04:15.947Z,1008.25
2016-02-23T07:05:15.918Z,1008.26
2016-02-23T07:06:15.905Z,1008.38
2016-02-23T07:07:15.892Z,1008.42
2016-02-23T07:08:15.863Z,1008.43
2016-02-23T07:09:15.851Z,1008.48
2016-02-23T07:10:15.838Z,1008.44
2016-02-23T07:11:15.808Z,1008.45
2016-02-23T07:12:15.796Z,1008.42
2016-02-23T07:13:15.783Z,1008.46
2016-02-23T07:14:15.755Z,1008.45
2016-02-23T07:15:15.741Z,1008.51
2016-02-23T07:16:15.729Z,1008.53
2016-02-23T07:17:15.700Z,1008.54
2016-02-23T07:18:15.687Z,1008.57
2016-02-23T07:19:15.674Z,1008.58
2016-02-23T07:20:15.662Z,1008.57
2016-02-23T07:21:15.632Z,1008.59
2016-02-23T07:22:15.621Z,1008.63
2016-02-23T07:23:15.607Z,1008.66
2016-02-23T07:24:15.578Z,1008.68
2016-02-23T07:25:15.581Z,1008.65
2016-02-23T07:26:15.553Z,1008.71
2016-02-23T07:27:15.523Z,1008.69
2016-02-23T07:28:15.511Z,1008.7
2016-02-23T07:29:15.482Z,1008.7
2016-02-23T07:30:15.470Z,1008.75
2016-02-23T07:31:15.457Z,1008.76
2016-02-23T07:32:15.429Z,1008.72
2016-02-23T07:33:15.415Z,1008.7
2016-02-23T07:34:15.402Z,1008.66
2016-02-23T07:35:15.390Z,1008.67
2016-02-23T07:36:15.361Z,1008.69
2016-02-23T07:37:15.348Z,1008.7
2016-02-23T07:38:15.319Z,1008.71
2016-02-23T07:39:15.338Z,1008.76
2016-02-23T07:40:15.294Z,1008.77
2016-02-23T07:41:15.281Z,1008.79
2016-02-23T07:42:15.252Z,1008.79
2016-02-23T07:43:15.270Z,1008.83
2016-02-23T07:44:15.227Z,1008.82
2016-02-23T07:45:15.197Z,1008.81
2016-02-23T07:46:15.184Z,1008.87
2016-02-23T07:47:15.171Z,1008.88
2016-02-23T07:48:15.191Z,1008.9
2016-02-23T07:49:15.130Z,1008.85
2016-02-23T07:50:15.118Z,1008.84
2016-02-23T07:51:15.088Z,1008.84
2016-02-23T07:52:15.076Z,1008.87
2016-02-23T07:53:15.063Z,1008.89
2016-02-23T07:54:15.049Z,1008.89
2016-02-23T07:55:15.021Z,1008.9
2016-02-23T07:56:15.055Z,1008.88
2016-02-23T07:57:14.996Z,1008.88
2016-02-23T07:58:14.967Z,1008.92
2016-02-23T07:59:14.954Z,1008.89
2016-02-23T08:00:14.941Z,1008.95
2016-02-23T08:01:14.928Z,1008.97
2016-02-23T08:02:17.931Z,1008.97
2016-02-23T08:03:14.965Z,1008.89
2016-02-23T08:04:14.936Z,1008.97
2016-02-23T08:05:14.891Z,1008.95
2016-02-23T08:06:14.894Z,1008.94
2016-02-23T08:07:14.819Z,1008.93
2016-02-23T08:08:14.869Z,1008.94
2016-02-23T08:09:14.825Z,1008.95
2016-02-23T08:10:14.764Z,1008.9
2016-02-23T08:11:14.752Z,1008.91
2016-02-23T08:12:14.755Z,1008.9
2016-02-23T08:13:14.772Z,1008.94
2016-02-23T08:14:14.682Z,1008.92
2016-02-23T08:15:14.652Z,1008.9
2016-02-23T08:16:14.640Z,1008.95
2016-02-23T08:17:14.627Z,1008.98
2016-02-23T08:18:14.630Z,1008.97
2016-02-23T08:19:14.586Z,1009.02
2016-02-23T08:20:14.573Z,1009.07
2016-02-23T08:21:14.622Z,1009.12
2016-02-23T08:22:14.563Z,1009.14
2016-02-23T08:23:14.581Z,1009.19
2016-02-23T08:24:14.552Z,1009.14
2016-02-23T08:25:14.477Z,1009.16
2016-02-23T08:26:14.464Z,1009.14
2016-02-23T08:27:14.513Z,1009.15
2016-02-23T08:28:14.484Z,1009.12
2016-02-23T08:29:14.410Z,1009.06
2016-02-23T08:30:14.396Z,1009.08
2016-02-23T08:31:14.431Z,1009.09
2016-02-23T08:32:14.355Z,1009.13
2016-02-23T08:33:14.343Z,1009.18
2016-02-23T08:34:14.314Z,1009.18
2016-02-23T08:35:14.378Z,1009.14
2016-02-23T08:36:14.304Z,1009.15
2016-02-23T08:37:14.322Z,1009.12
2016-02-23T08:38:14.247Z,1009.21
2016-02-23T08:39:14.280Z,1009.18
2016-02-23T08:40:14.220Z,1009.21
2016-02-23T08:41:14.192Z,1009.22
2016-02-23T08:42:14.226Z,1009.22
2016-02-23T08:43:14.166Z,1009.26
2016-02-23T08:44:14.138Z,1009.27
2016-02-23T08:45:14.125Z,1009.19
2016-02-23T08:46:14.143Z,1009.21
2016-02-23T08:47:14.083Z,1009.24
2016-02-23T08:48:14.102Z,1009.22
2016-02-23T08:49:14.104Z,1009.19
2016-02-23T08:50:14.107Z,1009.18
2016-02-23T08:51:14.046Z,1009.18
2016-02-23T08:52:14.049Z,1009.14
2016-02-23T08:53:14.005Z,1009.17
2016-02-23T08:54:13.977Z,1009.19
2016-02-23T08:55:16.948Z,1009.17
2016-02-23T08:56:13.935Z,1009.17
2016-02-23T08:57:13.938Z,1009.14
2016-02-23T08:58:13.925Z,1009.15
2016-02-23T08:59:13.881Z,1009.1
2016-02-23T09:00:13.915Z,1009.21
2016-02-23T09:01:13.844Z,1009.12
2016-02-23T09:02:13.831Z,1009.13
2016-02-23T09:03:13.818Z,1009.23
2016-02-23T09:04:13.790Z,1009.16
2016-02-23T09:05:13.766Z,1009.22
2016-02-23T09:06:13.769Z,1009.23
2016-02-23T09:07:13.741Z,1009.2
2016-02-23T09:08:13.744Z,1009.21
2016-02-23T09:09:13.730Z,1009.23
2016-02-23T09:10:13.686Z,1009.26
2016-02-23T09:11:13.673Z,1009.23
2016-02-23T09:12:13.645Z,1009.28
2016-02-23T09:13:13.632Z,1009.24
2016-02-23T09:14:13.619Z,1009.23
2016-02-23T09:15:13.638Z,1009.3
2016-02-23T09:16:13.593Z,1009.29
2016-02-23T09:17:13.564Z,1009.38
2016-02-23T09:18:13.599Z,1009.33
2016-02-23T09:19:13.554Z,1009.32
2016-02-23T09:20:13.510Z,1009.38
2016-02-23T09:21:13.544Z,1009.39
2016-02-23T09:22:13.546Z,1009.42
2016-02-23T09:23:13.518Z,1009.32
2016-02-23T09:24:13.474Z,1009.41
2016-02-23T09:25:13.461Z,1009.4
2016-02-23T09:26:13.463Z,1009.46
2016-02-23T09:27:13.482Z,1009.4
2016-02-23T09:28:13.417Z,1009.44
2016-02-23T09:29:13.328Z,1009.42
2016-02-23T09:30:13.303Z,1009.37
2016-02-23T09:31:13.277Z,1009.43
2016-02-23T09:32:13.252Z,1009.44
2016-02-23T09:33:13.230Z,1009.43
2016-02-23T09:34:13.212Z,1009.43
2016-02-23T09:35:13.242Z,1009.43
2016-02-23T09:36:13.223Z,1009.44
2016-02-23T09:37:13.191Z,1009.42
2016-02-23T09:38:13.127Z,1009.44
2016-02-23T09:39:13.144Z,1009.53
2016-02-23T09:40:13.051Z,1009.51
2016-02-23T09:41:13.035Z,1009.46
2016-02-23T09:42:13.022Z,1009.46
2016-02-23T09:43:13.023Z,1009.46
2016-02-23T09:44:12.978Z,1009.44
2016-02-23T09:45:12.997Z,1009.43
2016-02-23T09:46:15.967Z,1009.52
2016-02-23T09:47:12.985Z,1009.49
2016-02-23T09:48:12.909Z,1009.58
2016-02-23T09:49:12.959Z,1009.53
2016-02-23T09:50:12.867Z,1009.49
2016-02-23T09:51:12.853Z,1009.44
2016-02-23T09:52:12.903Z,1009.51
2016-02-23T09:53:12.890Z,1009.47
2016-02-23T09:54:12.814Z,1009.53
2016-02-23T09:55:12.802Z,1009.55
2016-02-23T09:56:12.804Z,1009.52
2016-02-23T09:57:12.760Z,1009.51
2016-02-23T09:58:12.779Z,1009.5
2016-02-23T09:59:12.781Z,1009.53
2016-02-23T10:00:12.690Z,1009.49
2016-02-23T10:01:12.677Z,1009.47
2016-02-23T10:02:12.665Z,1009.52
2016-02-23T10:03:12.667Z,1009.5
2016-02-23T10:04:12.670Z,1009.49
2016-02-23T10:05:12.641Z,1009.5
2016-02-23T10:06:12.628Z,1009.48
2016-02-23T10:07:12.646Z,1009.53
2016-02-23T10:08:12.602Z,1009.56
2016-02-23T10:09:12.558Z,1009.56
2016-02-23T10:10:12.592Z,1009.56
2016-02-23T10:11:15.517Z,1009.59
2016-02-23T10:12:12.503Z,1009.59
2016-02-23T10:13:12.475Z,1009.62
2016-02-23T10:14:12.478Z,1009.56
2016-02-23T10:15:12.481Z,1009.62
2016-02-23T10:16:12.467Z,1009.6
2016-02-23T10:17:12.392Z,1009.61
2016-02-23T10:18:12.379Z,1009.59
2016-02-23T10:19:12.350Z,1009.59
2016-02-23T10:20:12.353Z,1009.63
2016-02-23T10:21:12.386Z,1009.62
2016-02-23T10:22:12.297Z,1009.67
2016-02-23T10:23:12.299Z,1009.64
2016-02-23T10:24:12.270Z,1009.63
2016-02-23T10:25:12.319Z,1009.64
2016-02-23T10:26:12.275Z,1009.61
2016-02-23T10:27:12.263Z,1009.66
2016-02-23T10:28:12.249Z,1009.67
2016-02-23T10:29:12.252Z,1009.67
2016-02-23T10:30:12.161Z,1009.67
2016-02-23T10:31:12.163Z,1009.7
2016-02-23T10:32:12.120Z,1009.75
2016-02-23T10:33:12.185Z,1009.69
2016-02-23T10:34:12.110Z,1009.78
2016-02-23T10:35:12.096Z,1009.73
2016-02-23T10:36:12.084Z,1009.74
2016-02-23T10:37:12.087Z,1009.77
2016-02-23T10:38:12.027Z,1009.79
2016-02-23T10:39:11.998Z,1009.83
2016-02-23T10:40:11.985Z,1009.82
2016-02-23T10:41:12.035Z,1009.8
2016-02-23T10:42:11.975Z,1009.83
2016-02-23T10:43:11.931Z,1009.8
2016-02-23T10:44:11.933Z,1009.86
2016-02-23T10:45:11.920Z,1009.86
2016-02-23T10:46:11.970Z,1009.83
2016-02-23T10:47:11.848Z,1009.85
2016-02-23T10:48:11.866Z,1009.88
2016-02-23T10:49:11.822Z,1009.85
2016-02-23T10:50:11.794Z,1009.84
2016-02-23T10:51:11.842Z,1009.8
2016-02-23T10:52:11.783Z,1009.84
2016-02-23T10:53:11.755Z,1009.83
2016-02-23T10:54:11.772Z,1009.82
2016-02-23T10:55:11.775Z,1009.81
2016-02-23T10:56:11.778Z,1009.75
2016-02-23T10:57:11.716Z,1009.8
2016-02-23T10:58:11.672Z,1009.76
2016-02-23T10:59:11.675Z,1009.85
2016-02-23T11:00:11.693Z,1009.75
2016-02-23T11:01:11.663Z,1009.77
2016-02-23T11:02:11.589Z,1009.78
2016-02-23T11:03:11.638Z,1009.77
2016-02-23T11:04:11.640Z,1009.75
2016-02-23T11:05:11.534Z,1009.77
2016-02-23T11:06:11.599Z,1009.84
2016-02-23T11:07:11.508Z,1009.81
2016-02-23T11:08:11.511Z,1009.81
2016-02-23T11:09:11.467Z,1009.85
2016-02-23T11:10:11.485Z,1009.82
2016-02-23T11:11:11.426Z,1009.85
2016-02-23T11:12:11.429Z,1009.87
2016-02-23T11:13:11.399Z,1009.86
2016-02-23T11:14:11.449Z,1009.91
2016-02-23T11:15:11.420Z,1009.92
2016-02-23T11:16:11.345Z,1009.9
2016-02-23T11:17:11.378Z,1009.94
2016-02-23T11:18:11.303Z,1009.94
2016-02-23T11:19:11.353Z,1009.93
2016-02-23T11:20:11.262Z,1009.91
2016-02-23T11:21:11.342Z,1009.92
2016-02-23T11:22:11.236Z,1009.9
2016-02-23T11:23:11.301Z,1009.88
2016-02-23T11:24:11.194Z,1009.96
2016-02-23T11:25:11.213Z,1009.94
2016-02-23T11:26:11.169Z,1009.94
2016-02-23T11:27:11.172Z,1009.94
2016-02-23T11:28:11.127Z,1009.96
2016-02-23T11:29:11.114Z,1009.93
2016-02-23T11:30:11.164Z,1009.9
2016-02-23T11:31:11.072Z,1009.91
2016-02-23T11:32:11.092Z,1009.93
2016-02-23T11:33:11.063Z,1009.91
2016-02-23T11:34:11.050Z,1009.89
2016-02-23T11:35:11.021Z,1009.89
2016-02-23T11:36:11.008Z,1009.88
2016-02-23T11:37:10.963Z,1009.89
2016-02-23T11:38:10.999Z,1009.88
2016-02-23T11:39:10.954Z,1009.87
2016-02-23T11:40:10.926Z,1009.86
2016-02-23T11:41:10.974Z,1009.84
2016-02-23T11:42:10.946Z,1009.85
2016-02-23T11:43:10.933Z,1009.85
2016-02-23T11:44:10.873Z,1009.83
2016-02-23T11:45:10.830Z,1009.9
2016-02-23T11:46:10.817Z,1009.88
2016-02-23T11:47:10.804Z,1009.85
2016-02-23T11:48:10.837Z,1009.82
2016-02-23T11:49:10.762Z,1009.85
2016-02-23T11:50:10.748Z,1009.83
2016-02-23T11:51:10.751Z,1009.83
2016-02-23T11:52:10.722Z,1009.88
2016-02-23T11:53:10.754Z,1009.81
2016-02-23T11:54:10.746Z,1009.82
2016-02-23T11:55:10.655Z,1009.79
2016-02-23T11:56:10.730Z,1009.81
2016-02-23T11:57:10.623Z,1009.73
2016-02-23T11:58:10.595Z,1009.75
2016-02-23T11:59:10.613Z,1009.77
2016-02-23T12:00:10.600Z,1009.78
2016-02-23T12:01:10.571Z,1009.74
2016-02-23T12:02:10.528Z,1009.78
2016-02-23T12:03:10.515Z,1009.8
2016-02-23T12:04:10.486Z,1009.83
2016-02-23T12:05:10.520Z,1009.83
2016-02-23T12:06:10.451Z,1009.81
2016-02-23T12:07:10.434Z,1009.79
2016-02-23T12:08:10.436Z,1009.79